Time;durP1;ratioP1;P1;durP2;ratioP2;P2;SDS_P1;SDS_P2;PMS_P1;PMS_P2;Temp;Humidity;BMP_temperature;BMP_pressure;BME280_temperature;BME280_humidity;BME280_pressure;Samples;Min_cycle;Max_cycle;Signal;HPM_P1;HPM_P2
2024/03/18 00:00:23;;;;;;;4.50;1.63;;;5.50;99.90;;;;;;4870385;29;20530;-93
2024/03/18 00:02:54;;;;;;;5.57;1.47;;;5.50;99.90;;;;;;4886772;29;20196;-92
2024/03/18 00:05:22;;;;;;;5.37;1.50;;;5.40;99.90;;;;;;4883091;29;20275;-91
2024/03/18 00:07:49;;;;;;;4.50;1.47;;;5.40;99.90;;;;;;4883025;29;20265;-93
2024/03/18 00:10:16;;;;;;;7.50;1.70;;;5.40;99.90;;;;;;4883099;29;20188;-92
2024/03/18 00:12:43;;;;;;;5.10;1.80;;;5.40;99.90;;;;;;4882848;29;20616;-91
2024/03/18 00:15:19;;;;;;;7.17;1.80;;;5.40;99.90;;;;;;4882874;29;20635;-92
2024/03/18 00:17:45;;;;;;;7.63;1.97;;;5.40;99.90;;;;;;4882803;29;20232;-91
2024/03/18 00:20:14;;;;;;;5.50;1.50;;;5.30;99.90;;;;;;4882847;29;20235;-91
2024/03/18 00:22:41;;;;;;;7.70;1.57;;;5.30;99.90;;;;;;4883942;29;20183;-94
2024/03/18 00:25:08;;;;;;;5.63;1.67;;;5.30;99.90;;;;;;4883013;29;20247;-91
2024/03/18 00:27:34;;;;;;;6.07;2.00;;;5.30;99.90;;;;;;4882599;29;20176;-92
2024/03/18 00:30:01;;;;;;;6.37;1.70;;;5.30;99.90;;;;;;4882795;29;20270;-94
2024/03/18 00:32:29;;;;;;;8.30;1.80;;;5.30;99.90;;;;;;4882408;29;20628;-91
2024/03/18 00:35:01;;;;;;;6.30;1.97;;;5.30;99.90;;;;;;4883698;29;20182;-92
2024/03/18 00:37:27;;;;;;;4.90;1.87;;;5.20;99.90;;;;;;4867070;29;20191;-93
2024/03/18 00:39:52;;;;;;;6.77;1.37;;;5.20;99.90;;;;;;4863711;29;20236;-89
2024/03/18 00:42:18;;;;;;;4.03;1.50;;;5.20;99.90;;;;;;4863790;29;20736;-92
2024/03/18 00:44:56;;;;;;;7.37;1.67;;;5.20;99.90;;;;;;4864075;29;20616;-95
2024/03/18 00:47:23;;;;;;;6.97;1.60;;;5.10;99.90;;;;;;4864754;29;20181;-91
2024/03/18 00:49:49;;;;;;;5.00;1.33;;;5.10;99.90;;;;;;4863746;29;20185;-94
2024/03/18 00:52:16;;;;;;;4.00;1.37;;;5.10;99.90;;;;;;4863443;29;20629;-90
2024/03/18 00:54:43;;;;;;;4.00;1.60;;;5.10;99.90;;;;;;4863689;29;20193;-93
2024/03/18 00:57:09;;;;;;;5.17;1.60;;;5.10;99.90;;;;;;4863915;29;20173;-91
2024/03/18 00:59:35;;;;;;;5.03;1.80;;;5.10;99.90;;;;;;4848191;29;20185;-95
2024/03/18 01:02:01;;;;;;;5.13;1.80;;;5.10;99.90;;;;;;4848608;29;20260;-92
2024/03/18 01:04:37;;;;;;;5.30;1.80;;;5.00;99.90;;;;;;4863786;29;20188;-94
2024/03/18 01:07:03;;;;;;;5.67;1.97;;;5.00;99.90;;;;;;4864298;29;20180;-92
2024/03/18 01:09:29;;;;;;;6.63;1.60;;;5.00;99.90;;;;;;4864635;29;20181;-92
2024/03/18 01:11:55;;;;;;;8.50;1.80;;;4.90;99.90;;;;;;4863371;29;20536;-93
2024/03/18 01:14:23;;;;;;;5.73;1.67;;;4.90;99.90;;;;;;4863549;29;20185;-93
2024/03/18 01:16:48;;;;;;;3.60;1.60;;;4.90;99.90;;;;;;4862291;29;20181;-93
2024/03/18 01:19:15;;;;;;;7.47;1.70;;;4.90;99.90;;;;;;4863288;29;20187;-95
2024/03/18 01:21:40;;;;;;;4.57;1.50;;;4.90;99.90;;;;;;4863215;29;20560;-90
2024/03/18 01:24:08;;;;;;;4.77;1.93;;;4.80;99.90;;;;;;4864416;29;20264;-93
2024/03/18 01:26:36;;;;;;;3.77;1.50;;;4.80;99.90;;;;;;4863133;29;20185;-89
2024/03/18 01:29:03;;;;;;;6.47;1.80;;;4.80;99.90;;;;;;4864347;29;20176;-92
2024/03/18 01:31:29;;;;;;;8.83;1.80;;;4.80;99.90;;;;;;4863306;29;20189;-91
2024/03/18 01:33:55;;;;;;;6.43;1.70;;;4.80;99.90;;;;;;4863357;29;20195;-93
2024/03/18 01:36:20;;;;;;;4.07;1.47;;;4.80;99.90;;;;;;4863197;29;20189;-92
2024/03/18 01:38:46;;;;;;;4.93;1.60;;;4.70;99.90;;;;;;4862749;29;20227;-93
2024/03/18 01:41:12;;;;;;;7.83;2.20;;;4.70;99.90;;;;;;4880975;29;20267;-93
2024/03/18 01:43:39;;;;;;;6.57;1.67;;;4.70;99.90;;;;;;4865804;29;20231;-93
2024/03/18 01:46:18;;;;;;;3.87;1.40;;;4.70;99.90;;;;;;4865558;29;20226;-94
2024/03/18 01:48:46;;;;;;;6.63;1.70;;;4.60;99.90;;;;;;4882370;29;20554;-93
2024/03/18 01:51:12;;;;;;;7.80;1.80;;;4.60;99.90;;;;;;4880991;29;20180;-95
2024/03/18 01:53:39;;;;;;;6.77;2.20;;;4.60;99.90;;;;;;4882540;29;20180;-93
2024/03/18 01:56:13;;;;;;;7.47;1.83;;;4.60;99.90;;;;;;4882436;29;20632;-92
2024/03/18 01:58:39;;;;;;;2.60;1.17;;;4.50;99.90;;;;;;4881570;29;20183;-92
2024/03/18 02:01:08;;;;;;;4.93;1.70;;;4.50;99.90;;;;;;4865618;29;20298;-92
2024/03/18 02:03:35;;;;;;;6.00;2.17;;;4.50;99.90;;;;;;4881143;29;20192;-92
2024/03/18 02:06:06;;;;;;;4.10;1.50;;;4.50;99.90;;;;;;4865848;29;20180;-92
2024/03/18 02:08:33;;;;;;;4.30;1.43;;;4.50;99.90;;;;;;4880785;29;20639;-95
2024/03/18 02:10:59;;;;;;;7.57;2.27;;;4.40;99.90;;;;;;4881086;29;20278;-92
2024/03/18 02:13:25;;;;;;;3.67;1.33;;;4.40;99.90;;;;;;4865519;29;20703;-92
2024/03/18 02:15:54;;;;;;;3.83;1.70;;;4.40;99.90;;;;;;4865456;29;20524;-93
2024/03/18 02:18:20;;;;;;;3.90;1.60;;;4.30;99.90;;;;;;4882531;29;20176;-94
2024/03/18 02:20:45;;;;;;;4.80;1.80;;;4.40;99.90;;;;;;4865333;29;20365;-91
2024/03/18 02:23:12;;;;;;;4.67;2.00;;;4.40;99.90;;;;;;4864994;29;20275;-92
2024/03/18 02:25:42;;;;;;;6.10;1.70;;;4.40;99.90;;;;;;4865592;29;20187;-93
2024/03/18 02:28:09;;;;;;;6.63;2.03;;;4.30;99.90;;;;;;4865071;29;20555;-91
2024/03/18 02:30:35;;;;;;;5.97;1.90;;;4.30;99.90;;;;;;4864725;29;20240;-91
2024/03/18 02:33:01;;;;;;;8.20;2.17;;;4.30;99.90;;;;;;4864464;29;20235;-93
2024/03/18 02:35:26;;;;;;;6.23;1.80;;;4.30;99.90;;;;;;4865313;29;20183;-93
2024/03/18 02:37:52;;;;;;;3.50;1.43;;;4.30;99.90;;;;;;4865148;29;20176;-92
2024/03/18 02:40:18;;;;;;;6.80;1.93;;;4.20;99.90;;;;;;4865374;29;20246;-89
2024/03/18 02:42:44;;;;;;;6.07;1.80;;;4.20;99.90;;;;;;4864743;29;20541;-94
2024/03/18 02:45:11;;;;;;;6.80;1.67;;;4.20;99.90;;;;;;4864620;29;20614;-94
2024/03/18 02:47:38;;;;;;;3.70;1.63;;;4.20;99.90;;;;;;4880249;29;20172;-93
2024/03/18 02:50:06;;;;;;;4.83;1.97;;;4.20;99.90;;;;;;4881496;29;20184;-91
2024/03/18 02:52:33;;;;;;;3.00;1.63;;;4.20;99.90;;;;;;4880215;29;20190;-92
2024/03/18 02:55:07;;;;;;;8.37;1.83;;;4.10;99.90;;;;;;4880519;29;20278;-91
2024/03/18 02:57:33;;;;;;;3.83;1.60;;;4.10;99.90;;;;;;4880536;29;20316;-92
2024/03/18 02:59:59;;;;;;;4.30;2.03;;;4.10;99.90;;;;;;4865006;29;20187;-92
2024/03/18 03:02:26;;;;;;;6.23;1.93;;;4.10;99.90;;;;;;4860145;29;20271;-90
2024/03/18 03:04:52;;;;;;;4.43;1.80;;;4.10;99.90;;;;;;4861165;29;20254;-92
2024/03/18 03:07:18;;;;;;;2.63;1.50;;;4.10;99.90;;;;;;4861357;29;20244;-90
2024/03/18 03:09:44;;;;;;;5.87;2.03;;;4.10;99.90;;;;;;4862705;29;20168;-91
2024/03/18 03:12:10;;;;;;;5.60;2.00;;;4.10;99.90;;;;;;4861815;29;20187;-92
2024/03/18 03:14:35;;;;;;;5.30;1.80;;;4.10;99.90;;;;;;4861793;29;20180;-94
2024/03/18 03:17:08;;;;;;;4.37;2.17;;;4.00;99.90;;;;;;4863022;29;20544;-90
2024/03/18 03:19:34;;;;;;;5.17;2.03;;;4.00;99.90;;;;;;4861705;29;20184;-92
2024/03/18 03:22:02;;;;;;;4.00;2.10;;;4.00;99.90;;;;;;4862623;29;20208;-92
2024/03/18 03:24:27;;;;;;;8.17;2.03;;;4.00;99.90;;;;;;4845541;29;20203;-91
2024/03/18 03:26:53;;;;;;;3.00;1.93;;;4.00;99.90;;;;;;4861390;29;20608;-93
2024/03/18 03:29:19;;;;;;;4.40;1.80;;;4.00;99.90;;;;;;4861443;29;20236;-92
2024/03/18 03:31:45;;;;;;;3.83;2.50;;;3.90;99.90;;;;;;4846349;29;20192;-90
2024/03/18 03:36:46;;;;;;;5.07;2.00;;;3.90;99.90;;;;;;4910137;24;20307;-93
2024/03/18 03:39:13;;;;;;;3.00;2.17;;;3.80;99.90;;;;;;4844861;29;20193;-93
2024/03/18 03:41:40;;;;;;;6.93;2.50;;;3.80;99.90;;;;;;4849989;29;20220;-92
2024/03/18 03:44:06;;;;;;;4.80;2.50;;;3.80;99.90;;;;;;4850477;29;20176;-92
2024/03/18 03:46:33;;;;;;;6.33;2.50;;;3.80;99.90;;;;;;4850115;29;20565;-89
2024/03/18 03:48:58;;;;;;;8.60;2.40;;;3.80;99.90;;;;;;4850049;29;20180;-90
2024/03/18 03:51:24;;;;;;;5.83;2.40;;;3.80;99.90;;;;;;4850662;29;20191;-92
2024/03/18 03:53:50;;;;;;;3.50;2.13;;;3.70;99.90;;;;;;4849057;29;20184;-90
2024/03/18 03:56:17;;;;;;;5.10;2.20;;;3.70;99.90;;;;;;4849849;29;20191;-91
2024/03/18 03:58:46;;;;;;;5.30;2.50;;;3.70;99.90;;;;;;4849943;29;20192;-92
2024/03/18 04:01:12;;;;;;;3.60;2.27;;;3.70;99.90;;;;;;4849229;29;20644;-89
2024/03/18 04:03:38;;;;;;;3.43;2.40;;;3.70;99.90;;;;;;4849376;29;20624;-89
2024/03/18 04:06:13;;;;;;;3.93;2.27;;;3.70;99.90;;;;;;4864615;29;20188;-89
2024/03/18 04:08:39;;;;;;;4.87;2.30;;;3.70;99.90;;;;;;4849120;29;20248;-90
2024/03/18 04:11:04;;;;;;;6.00;2.60;;;3.70;99.90;;;;;;4849052;29;20181;-93
2024/03/18 04:13:30;;;;;;;5.00;2.60;;;3.70;99.90;;;;;;4849194;29;20189;-90
2024/03/18 04:15:57;;;;;;;4.03;2.10;;;3.70;99.90;;;;;;4849070;29;20207;-94
2024/03/18 04:18:24;;;;;;;4.00;2.57;;;3.70;99.90;;;;;;4849318;29;20197;-90
2024/03/18 04:20:51;;;;;;;3.80;2.90;;;3.70;99.90;;;;;;4848842;29;20219;-90
2024/03/18 04:23:17;;;;;;;5.30;2.93;;;3.70;99.90;;;;;;4849159;29;20188;-93
2024/03/18 04:25:43;;;;;;;9.50;3.00;;;3.70;99.90;;;;;;4848801;29;20188;-92
2024/03/18 04:28:09;;;;;;;5.17;2.53;;;3.70;99.90;;;;;;4849016;29;20200;-93
2024/03/18 04:30:39;;;;;;;6.43;2.73;;;3.70;99.90;;;;;;4849294;29;20184;-92
2024/03/18 04:33:06;;;;;;;4.90;2.63;;;3.70;99.90;;;;;;4848986;29;20189;-93
2024/03/18 04:35:32;;;;;;;3.47;2.40;;;3.60;99.90;;;;;;4848575;29;20236;-92
2024/03/18 04:37:58;;;;;;;7.20;2.90;;;3.60;99.90;;;;;;4848423;29;20531;-91
2024/03/18 04:40:25;;;;;;;4.17;2.90;;;3.60;99.90;;;;;;4848357;29;20188;-90
2024/03/18 04:42:57;;;;;;;6.03;2.80;;;3.60;99.90;;;;;;4848738;29;20216;-93
2024/03/18 04:45:23;;;;;;;7.77;3.00;;;3.60;99.90;;;;;;4848460;29;20562;-91
2024/03/18 04:47:56;;;;;;;4.80;2.83;;;3.60;99.90;;;;;;4848347;29;20225;-92
2024/03/18 04:50:24;;;;;;;7.40;3.10;;;3.60;99.90;;;;;;4848359;29;20172;-89
2024/03/18 04:52:52;;;;;;;6.07;2.93;;;3.60;99.90;;;;;;4848683;29;20185;-91
2024/03/18 04:55:19;;;;;;;6.73;3.00;;;3.50;99.90;;;;;;4848195;29;20712;-89
2024/03/18 04:57:45;;;;;;;4.77;2.70;;;3.50;99.90;;;;;;4848224;29;20192;-87
2024/03/18 05:00:14;;;;;;;5.20;3.13;;;3.50;99.90;;;;;;4848327;29;20182;-93
2024/03/18 05:02:40;;;;;;;5.40;3.03;;;3.40;99.90;;;;;;4848401;29;20952;-92
2024/03/18 05:05:07;;;;;;;5.40;3.13;;;3.40;99.90;;;;;;4863017;29;20244;-94
2024/03/18 05:07:39;;;;;;;8.90;3.40;;;3.40;99.90;;;;;;4848134;29;20275;-88
2024/03/18 05:10:06;;;;;;;4.93;3.23;;;3.40;99.90;;;;;;4864444;29;20191;-91
2024/03/18 05:12:34;;;;;;;4.10;2.93;;;3.40;99.90;;;;;;4848002;29;20191;-90
2024/03/18 05:15:00;;;;;;;5.73;3.13;;;3.30;99.90;;;;;;4847422;29;20219;-88
2024/03/18 05:17:32;;;;;;;3.83;2.93;;;3.30;99.90;;;;;;4846284;29;20648;-91
2024/03/18 05:19:58;;;;;;;7.57;3.17;;;3.30;99.90;;;;;;4845187;29;20185;-89
2024/03/18 05:22:24;;;;;;;6.00;3.00;;;3.30;99.90;;;;;;4844204;29;20691;-91
2024/03/18 05:24:50;;;;;;;7.90;3.30;;;3.30;99.90;;;;;;4844659;29;20645;-93
2024/03/18 05:27:18;;;;;;;8.00;3.40;;;3.30;99.90;;;;;;4844537;29;20189;-90
2024/03/18 05:29:45;;;;;;;5.53;3.30;;;3.30;99.90;;;;;;4829630;29;20184;-89
2024/03/18 05:32:13;;;;;;;4.53;3.07;;;3.30;99.90;;;;;;4835471;29;20193;-88
2024/03/18 05:34:39;;;;;;;5.13;3.17;;;3.20;99.90;;;;;;4847512;29;20275;-91
2024/03/18 05:37:12;;;;;;;6.27;3.20;;;3.20;99.90;;;;;;4847757;29;20193;-89
2024/03/18 05:39:40;;;;;;;7.33;3.27;;;3.20;99.90;;;;;;4847574;29;20181;-89
2024/03/18 05:42:07;;;;;;;4.60;3.30;;;3.20;99.90;;;;;;4847656;29;20247;-91
2024/03/18 05:44:33;;;;;;;6.37;3.10;;;3.20;99.90;;;;;;4847607;29;20268;-91
2024/03/18 05:47:12;;;;;;;4.97;3.00;;;3.20;99.90;;;;;;4847219;29;20636;-93
2024/03/18 05:49:38;;;;;;;5.93;3.20;;;3.20;99.90;;;;;;4847354;29;20184;-90
2024/03/18 05:52:04;;;;;;;6.17;3.40;;;3.20;99.90;;;;;;4847372;29;20225;-91
2024/03/18 05:54:30;;;;;;;7.83;3.23;;;3.20;99.90;;;;;;4847300;29;20191;-89
2024/03/18 05:56:56;;;;;;;6.10;3.57;;;3.20;99.90;;;;;;4846196;29;20192;-91
2024/03/18 05:59:21;;;;;;;8.17;3.30;;;3.20;99.90;;;;;;4863850;29;20229;-92
2024/03/18 06:01:47;;;;;;;5.13;3.27;;;3.20;99.90;;;;;;4846417;29;20224;-88
2024/03/18 06:04:13;;;;;;;6.03;3.20;;;3.30;99.90;;;;;;4846587;29;20268;-92
2024/03/18 06:06:40;;;;;;;7.70;3.40;;;3.30;99.90;;;;;;4847173;29;20204;-89
2024/03/18 06:09:08;;;;;;;6.07;3.40;;;3.30;99.90;;;;;;4863423;29;20517;-90
2024/03/18 06:11:34;;;;;;;6.47;3.30;;;3.30;99.90;;;;;;4846913;29;20676;-92
2024/03/18 06:14:01;;;;;;;8.00;3.83;;;3.40;99.90;;;;;;4847145;29;20558;-90
2024/03/18 06:16:27;;;;;;;5.60;3.40;;;3.50;99.90;;;;;;4862123;29;20180;-91
2024/03/18 06:18:59;;;;;;;6.37;3.50;;;3.50;99.90;;;;;;4847086;29;20195;-89
2024/03/18 06:21:32;;;;;;;6.97;3.40;;;3.60;99.90;;;;;;4847029;29;20216;-91
2024/03/18 06:24:05;;;;;;;6.10;3.30;;;3.60;99.90;;;;;;4846993;29;20195;-90
2024/03/18 06:26:31;;;;;;;7.77;3.50;;;3.60;99.90;;;;;;4845757;29;20203;-90
2024/03/18 06:29:08;;;;;;;5.90;3.87;;;3.70;99.90;;;;;;4846784;29;20271;-90
2024/03/18 06:31:34;;;;;;;7.30;3.87;;;3.70;99.90;;;;;;4846270;29;20259;-90
2024/03/18 06:34:00;;;;;;;5.87;3.13;;;3.80;99.90;;;;;;4846386;29;20219;-90
2024/03/18 06:36:25;;;;;;;5.57;3.47;;;3.80;99.90;;;;;;4858304;29;20228;-93
2024/03/18 06:38:59;;;;;;;7.27;3.30;;;3.80;99.90;;;;;;4864803;29;20180;-89
2024/03/18 06:41:25;;;;;;;6.37;3.03;;;3.90;99.90;;;;;;4864242;29;20212;-90
2024/03/18 06:43:51;;;;;;;8.90;3.57;;;3.90;99.90;;;;;;4864902;29;20192;-90
2024/03/18 06:46:17;;;;;;;5.83;3.30;;;3.90;99.90;;;;;;4864574;29;20282;-91
2024/03/18 06:48:43;;;;;;;4.40;2.93;;;3.90;99.90;;;;;;4880191;29;20706;-92
2024/03/18 06:51:16;;;;;;;6.53;3.60;;;3.90;99.90;;;;;;4864813;29;20214;-93
2024/03/18 06:53:42;;;;;;;4.47;3.13;;;3.90;99.90;;;;;;4863653;29;20605;-91
2024/03/18 06:56:08;;;;;;;11.00;3.93;;;3.90;99.90;;;;;;4864502;29;20271;-94
2024/03/18 06:58:41;;;;;;;9.97;3.47;;;3.90;99.90;;;;;;4863954;29;20192;-94
2024/03/18 07:01:09;;;;;;;8.17;3.77;;;3.90;99.90;;;;;;4864934;29;20247;-94
2024/03/18 07:03:37;;;;;;;5.23;3.23;;;3.90;99.90;;;;;;4881042;29;20210;-94
2024/03/18 07:06:03;;;;;;;6.80;3.63;;;3.90;99.90;;;;;;4864839;29;20219;-93
2024/03/18 07:08:40;;;;;;;6.13;3.23;;;3.90;99.90;;;;;;4865469;29;20188;-96
2024/03/18 07:11:05;;;;;;;5.03;3.33;;;3.90;99.90;;;;;;4866308;29;20183;-93
2024/03/18 07:13:31;;;;;;;7.20;3.50;;;3.90;99.90;;;;;;4865736;29;20577;-92
2024/03/18 07:15:58;;;;;;;6.43;3.77;;;3.90;99.90;;;;;;4868171;29;20266;-92
2024/03/18 07:18:25;;;;;;;9.20;4.70;;;3.90;99.90;;;;;;4868170;29;20188;-93
2024/03/18 07:20:52;;;;;;;6.30;3.00;;;4.00;99.90;;;;;;4868494;29;20207;-93
2024/03/18 07:23:20;;;;;;;6.30;3.60;;;4.00;99.90;;;;;;4868880;29;20195;-93
2024/03/18 07:25:45;;;;;;;8.23;3.80;;;4.10;99.90;;;;;;4868754;29;20211;-94
2024/03/18 07:28:21;;;;;;;7.07;3.60;;;4.10;99.90;;;;;;4867274;29;20243;-92
2024/03/18 07:30:47;;;;;;;8.47;3.80;;;4.30;99.90;;;;;;4868542;29;20172;-92
2024/03/18 07:33:14;;;;;;;5.47;3.13;;;4.50;99.90;;;;;;4868623;29;20187;-94
2024/03/18 07:35:40;;;;;;;6.97;3.80;;;4.70;99.90;;;;;;4868430;29;20690;-93
2024/03/18 07:38:07;;;;;;;7.63;3.80;;;4.90;99.90;;;;;;4884223;29;20184;-95
2024/03/18 07:40:32;;;;;;;5.07;3.17;;;5.10;99.90;;;;;;4886307;29;20180;-93
2024/03/18 07:42:58;;;;;;;7.17;3.70;;;5.10;99.90;;;;;;4867988;29;20218;-92
2024/03/18 07:45:24;;;;;;;7.27;3.53;;;5.30;99.90;;;;;;4868910;29;20642;-94
2024/03/18 07:47:49;;;;;;;8.63;3.40;;;5.50;99.90;;;;;;4868786;29;20180;-94
2024/03/18 07:50:18;;;;;;;8.00;3.40;;;5.70;99.90;;;;;;4870407;29;20180;-94
2024/03/18 07:52:44;;;;;;;9.27;3.67;;;5.70;99.90;;;;;;4871829;29;20171;-94
2024/03/18 07:55:10;;;;;;;8.47;3.77;;;5.80;99.90;;;;;;4869802;29;20272;-91
2024/03/18 07:57:36;;;;;;;6.70;3.63;;;5.80;99.90;;;;;;4886003;29;20567;-95
2024/03/18 08:00:12;;;;;;;7.17;3.13;;;5.90;99.90;;;;;;4870325;29;20192;-95
2024/03/18 08:02:38;;;;;;;6.17;3.50;;;6.00;99.90;;;;;;4869697;29;20218;-93
2024/03/18 08:05:04;;;;;;;7.70;3.90;;;6.10;99.90;;;;;;4870596;29;20176;-94
2024/03/18 08:07:29;;;;;;;8.63;4.53;;;6.20;99.90;;;;;;4870860;29;20274;-95
2024/03/18 08:09:56;;;;;;;7.77;3.97;;;6.10;99.90;;;;;;4869567;29;20197;-94
2024/03/18 08:12:22;;;;;;;7.17;3.33;;;6.00;99.90;;;;;;4871117;29;20638;-93
2024/03/18 08:14:48;;;;;;;7.97;4.07;;;6.00;99.90;;;;;;4869886;29;20270;-95
2024/03/18 08:17:14;;;;;;;7.50;3.53;;;6.00;99.90;;;;;;4869991;29;20215;-92
2024/03/18 08:19:46;;;;;;;8.23;3.77;;;6.00;99.90;;;;;;4869121;29;20188;-93
2024/03/18 08:22:16;;;;;;;8.67;3.53;;;6.10;99.90;;;;;;4868838;29;20239;-92
2024/03/18 08:24:42;;;;;;;10.07;3.70;;;6.10;99.90;;;;;;4868336;29;20180;-93
2024/03/18 08:27:09;;;;;;;7.87;4.23;;;6.10;99.90;;;;;;4865835;29;20195;-92
2024/03/18 08:29:35;;;;;;;7.83;3.80;;;6.10;99.90;;;;;;4867577;29;20184;-91
2024/03/18 08:32:01;;;;;;;6.63;3.50;;;6.20;99.90;;;;;;4867266;29;20199;-92
2024/03/18 08:34:27;;;;;;;7.33;3.50;;;6.30;99.90;;;;;;4867028;29;20223;-92
2024/03/18 08:36:52;;;;;;;13.63;4.60;;;6.40;99.90;;;;;;4866359;29;20692;-94
2024/03/18 08:39:19;;;;;;;7.93;4.30;;;6.40;99.90;;;;;;4868444;29;20181;-92
2024/03/18 08:41:46;;;;;;;10.47;4.20;;;6.40;99.90;;;;;;4867154;29;20219;-92
2024/03/18 08:44:12;;;;;;;8.17;3.43;;;6.40;99.90;;;;;;4868410;29;20207;-93
2024/03/18 08:46:40;;;;;;;8.30;3.83;;;6.50;99.90;;;;;;4868500;29;20199;-93
2024/03/18 08:49:08;;;;;;;5.97;3.10;;;6.50;99.90;;;;;;4868188;29;20236;-92
2024/03/18 08:51:34;;;;;;;10.53;3.27;;;6.50;99.90;;;;;;4868890;29;20265;-91
2024/03/18 08:54:00;;;;;;;8.77;3.73;;;6.50;99.90;;;;;;4868242;29;20196;-93
2024/03/18 08:56:27;;;;;;;5.47;3.00;;;6.60;99.90;;;;;;4868534;29;20220;-93
2024/03/18 08:58:55;;;;;;;5.43;2.77;;;6.70;99.90;;;;;;4868466;29;20261;-95
2024/03/18 09:01:27;;;;;;;5.90;3.20;;;6.80;99.90;;;;;;4868892;29;20600;-91
2024/03/18 09:03:53;;;;;;;7.43;3.20;;;7.00;99.90;;;;;;4869347;29;20215;-94
2024/03/18 09:06:18;;;;;;;7.37;3.27;;;7.20;99.90;;;;;;4870059;29;20191;-95
2024/03/18 09:08:47;;;;;;;11.87;3.83;;;7.50;99.90;;;;;;4869319;29;20191;-94
2024/03/18 09:11:20;;;;;;;6.70;3.47;;;7.50;99.90;;;;;;4868705;29;20619;-95
2024/03/18 09:13:45;;;;;;;6.13;2.93;;;7.60;99.90;;;;;;4867267;29;20510;-92
2024/03/18 09:16:11;;;;;;;6.73;2.83;;;7.60;99.90;;;;;;4870644;29;20203;-92
2024/03/18 09:18:37;;;;;;;6.53;2.70;;;7.50;99.90;;;;;;4887586;29;20510;-89
2024/03/18 09:21:06;;;;;;;10.57;2.90;;;7.50;99.90;;;;;;4885753;29;20251;-91
2024/03/18 09:23:32;;;;;;;4.93;2.60;;;7.50;99.90;;;;;;4868655;29;20196;-91
2024/03/18 09:25:57;;;;;;;8.53;2.70;;;7.60;99.90;;;;;;4870018;29;20199;-91
2024/03/18 09:28:23;;;;;;;4.87;2.43;;;7.60;99.90;;;;;;4869633;29;20187;-92
2024/03/18 09:31:09;;;;;;;6.30;3.00;;;7.70;99.90;;;;;;4870909;29;20184;-96
2024/03/18 09:33:35;;;;;;;7.40;2.80;;;7.80;99.90;;;;;;4883350;29;20218;-95
2024/03/18 09:36:01;;;;;;;8.50;3.13;;;8.00;99.90;;;;;;4871347;29;20232;-92
2024/03/18 09:38:27;;;;;;;7.47;3.30;;;8.10;99.90;;;;;;4871665;29;20694;-95
2024/03/18 09:41:05;;;;;;;5.77;2.60;;;8.10;99.90;;;;;;4872272;29;20211;-96
2024/03/18 09:43:33;;;;;;;5.80;2.80;;;8.20;99.90;;;;;;4871969;29;20235;-95
2024/03/18 09:46:04;;;;;;;5.07;2.67;;;8.20;99.90;;;;;;4874828;29;20632;-93
2024/03/18 09:48:32;;;;;;;6.73;2.87;;;8.30;99.90;;;;;;4878997;29;20212;-95
2024/03/18 09:51:03;;;;;;;9.00;3.60;;;8.30;99.90;;;;;;4878780;29;20184;-95
2024/03/18 09:53:29;;;;;;;6.67;2.90;;;8.30;99.90;;;;;;4893897;29;20196;-95
2024/03/18 09:55:56;;;;;;;6.87;3.10;;;8.30;99.90;;;;;;4878089;29;20251;-96
2024/03/18 09:58:23;;;;;;;7.97;2.90;;;8.30;99.90;;;;;;4876081;29;20176;-93
2024/03/18 10:00:51;;;;;;;7.70;3.00;;;8.30;99.90;;;;;;4871753;29;20200;-93
2024/03/18 10:03:18;;;;;;;5.47;2.37;;;8.30;99.90;;;;;;4873825;29;20192;-90
2024/03/18 10:05:46;;;;;;;4.87;3.00;;;8.30;99.90;;;;;;4869300;29;20179;-91
2024/03/18 10:08:19;;;;;;;7.57;3.33;;;8.30;99.90;;;;;;4871494;29;20267;-96
2024/03/18 10:10:51;;;;;;;6.83;2.77;;;8.40;99.90;;;;;;4877150;23;20194;-95
2024/03/18 10:13:23;;;;;;;9.80;3.20;;;8.40;99.90;;;;;;4891677;29;20184;-92
2024/03/18 10:15:53;;;;;;;9.73;2.73;;;8.50;99.90;;;;;;4868865;29;20240;-91
2024/03/18 10:18:19;;;;;;;7.63;3.10;;;8.50;99.90;;;;;;4868092;29;20191;-90
2024/03/18 10:20:47;;;;;;;7.45;3.83;;;8.50;99.90;;;;;;4870355;29;20187;-95
2024/03/18 10:23:13;;;;;;;6.67;3.30;;;8.50;99.90;;;;;;4883645;29;20227;-89
2024/03/18 10:25:40;;;;;;;10.23;2.80;;;8.50;99.90;;;;;;4870927;29;20187;-92
2024/03/18 10:28:10;;;;;;;7.80;3.10;;;8.50;99.90;;;;;;4869421;29;20527;-89
2024/03/18 10:30:37;;;;;;;9.10;2.90;;;8.60;99.90;;;;;;4868433;29;20192;-92
2024/03/18 10:33:09;;;;;;;7.13;3.03;;;8.60;99.90;;;;;;4869842;29;20176;-92
2024/03/18 10:35:36;;;;;;;8.02;3.65;;;8.60;99.90;;;;;;4868670;29;20179;-93
2024/03/18 10:38:06;;;;;;;8.00;3.25;;;8.60;99.90;;;;;;4869392;29;20188;-92
2024/03/18 10:40:39;;;;;;;6.23;3.03;;;8.60;99.90;;;;;;4870833;29;20600;-92
2024/03/18 10:43:09;;;;;;;14.13;5.87;;;8.60;99.90;;;;;;4870283;29;20192;-93
2024/03/18 10:45:44;;;;;;;8.13;3.90;;;8.70;99.90;;;;;;4870280;29;20180;-95
2024/03/18 10:48:14;;;;;;;10.27;3.40;;;8.70;99.90;;;;;;4889514;29;20171;-95
2024/03/18 10:50:41;;;;;;;7.97;3.78;;;8.80;99.90;;;;;;4872133;29;20652;-92
2024/03/18 10:53:17;;;;;;;9.03;3.60;;;8.80;99.90;;;;;;4870722;29;20195;-92
2024/03/18 10:55:44;;;;;;;6.40;3.42;;;8.80;99.90;;;;;;4869615;29;20172;-90
2024/03/18 10:58:10;;;;;;;9.67;3.90;;;8.80;99.90;;;;;;4871746;29;20199;-92
2024/03/18 11:00:40;;;;;;;6.97;3.77;;;8.80;99.90;;;;;;4871541;29;20175;-95
2024/03/18 11:03:18;;;;;;;6.70;3.67;;;8.80;99.90;;;;;;4871122;29;20275;-96
2024/03/18 11:05:55;;;;;;;6.90;3.70;;;8.90;99.90;;;;;;4874648;29;20234;-96
2024/03/18 11:08:23;;;;;;;7.13;3.70;;;8.90;99.90;;;;;;4875481;29;20180;-96
2024/03/18 11:10:53;;;;;;;7.80;3.80;;;8.90;99.90;;;;;;4872886;29;20259;-95
2024/03/18 11:15:51;;;;;;;8.27;4.32;;;9.10;99.90;;;;;;4868404;29;20224;-96
2024/03/18 11:18:18;;;;;;;7.30;3.90;;;9.20;99.90;;;;;;4867650;29;20200;-96
2024/03/18 11:21:16;;;;;;;6.68;3.85;;;9.40;99.90;;;;;;4866925;29;20284;-95
2024/03/18 11:23:41;;;;;;;7.60;4.10;;;9.30;99.90;;;;;;4850927;29;20201;-94
2024/03/18 11:26:09;;;;;;;8.57;4.10;;;9.40;99.90;;;;;;4852132;29;20280;-96
2024/03/18 11:28:37;;;;;;;7.07;3.50;;;9.40;99.90;;;;;;4864502;29;20516;-94
2024/03/18 11:31:16;;;;;;;5.13;3.30;;;9.50;99.90;;;;;;4849210;29;20244;-93
2024/03/18 11:33:44;;;;;;;7.80;4.00;;;9.40;99.90;;;;;;4847692;29;20172;-94
2024/03/18 11:36:18;;;;;;;6.85;3.80;;;9.40;99.90;;;;;;4846050;29;20181;-91
2024/03/18 11:38:43;;;;;;;7.97;3.88;;;9.50;99.90;;;;;;4846748;29;20625;-94
2024/03/18 11:41:20;;;;;;;8.25;3.65;;;9.50;99.90;;;;;;4846939;29;20215;-96
2024/03/18 11:43:49;;;;;;;4.47;3.22;;;9.50;99.90;;;;;;4847455;29;20252;-95
2024/03/18 11:46:15;;;;;;;6.82;3.42;;;9.50;99.90;;;;;;4848107;29;20192;-93
2024/03/18 11:48:41;;;;;;;5.25;3.33;;;9.60;99.90;;;;;;4848657;29;20199;-95
2024/03/18 11:51:13;;;;;;;5.97;3.40;;;9.60;99.90;;;;;;4848492;29;20621;-93
2024/03/18 11:53:41;;;;;;;6.15;3.10;;;9.70;99.90;;;;;;4849173;29;20196;-96
2024/03/18 11:56:08;;;;;;;8.77;3.95;;;9.70;99.90;;;;;;4849747;29;20494;-92
2024/03/18 11:58:34;;;;;;;5.10;3.47;;;9.70;99.90;;;;;;4866751;29;20181;-95
2024/03/18 12:01:03;;;;;;;5.80;3.25;;;9.70;99.90;;;;;;4851475;29;20227;-96
2024/03/18 12:03:29;;;;;;;7.13;3.58;;;9.80;99.90;;;;;;4852270;29;20184;-94
2024/03/18 12:05:55;;;;;;;6.05;3.15;;;9.80;99.90;;;;;;4853945;29;20196;-93
2024/03/18 12:08:23;;;;;;;6.53;3.33;;;9.90;99.90;;;;;;4851038;29;20193;-94
2024/03/18 12:10:54;;;;;;;8.57;3.80;;;9.90;99.90;;;;;;4850770;29;20639;-91
2024/03/18 12:13:25;;;;;;;9.45;3.45;;;10.00;99.90;;;;;;4852734;29;20193;-94
2024/03/18 12:15:52;;;;;;;6.68;3.35;;;10.00;99.90;;;;;;4852939;29;20244;-96
2024/03/18 12:18:18;;;;;;;6.22;3.30;;;10.10;99.90;;;;;;4881596;29;20184;-94
2024/03/18 12:20:44;;;;;;;7.88;3.45;;;10.10;99.90;;;;;;4873320;29;20274;-96
2024/03/18 12:29:08;;;;;;;5.88;3.28;;;10.20;99.90;;;;;;4889098;29;20220;-94
2024/03/18 12:31:48;;;;;;;5.95;2.95;;;10.20;99.90;;;;;;4870039;29;20180;-95
2024/03/18 12:34:14;;;;;;;4.32;2.95;;;10.30;99.90;;;;;;4869480;29;20184;-93
2024/03/18 12:36:40;;;;;;;6.32;3.10;;;10.40;99.90;;;;;;4869046;29;20279;-95
2024/03/18 12:39:11;;;;;;;6.45;3.00;;;10.50;99.90;;;;;;4869279;29;20211;-92
2024/03/18 12:41:44;;;;;;;4.68;3.10;;;10.60;99.90;;;;;;4885173;29;20259;-94
2024/03/18 12:44:11;;;;;;;5.00;3.30;;;10.60;99.90;;;;;;4874360;29;20604;-94
2024/03/18 12:46:37;;;;;;;5.05;2.75;;;10.60;99.90;;;;;;4870690;29;20192;-96
2024/03/18 12:49:06;;;;;;;3.67;2.50;;;10.50;99.90;;;;;;4874968;29;20191;-95
2024/03/18 12:51:39;;;;;;;6.95;2.92;;;10.60;99.90;;;;;;4872801;29;20195;-95
2024/03/18 12:54:07;;;;;;;5.70;3.15;;;10.60;99.90;;;;;;4869262;29;20566;-94
2024/03/18 12:56:33;;;;;;;4.45;2.33;;;10.60;99.90;;;;;;4867952;29;20604;-94
2024/03/18 12:58:59;;;;;;;8.32;3.08;;;10.80;99.90;;;;;;4869944;29;20188;-94
2024/03/18 13:01:28;;;;;;;3.55;2.75;;;10.90;99.70;;;;;;4868533;29;20208;-93
2024/03/18 13:03:54;;;;;;;4.32;2.80;;;11.00;99.60;;;;;;4863253;29;20181;-95
2024/03/18 13:06:20;;;;;;;5.60;2.60;;;11.10;99.90;;;;;;4852731;29;20180;-94
2024/03/18 13:08:46;;;;;;;4.60;2.88;;;11.10;98.80;;;;;;4868697;29;20184;-91